sensor_id;sensor_type;location;lat;lon;timestamp;P1;durP1;ratioP1;P2;durP2;ratioP2
47337;SDS011;33069;51.970;5.892;2023-06-22T00:01:56;10.82;;;9.68;;
47337;SDS011;33069;51.970;5.892;2023-06-22T00:04:21;11.10;;;10.05;;
47337;SDS011;33069;51.970;5.892;2023-06-22T00:06:47;10.48;;;9.57;;
47337;SDS011;33069;51.970;5.892;2023-06-22T00:09:13;10.18;;;9.38;;
47337;SDS011;33069;51.970;5.892;2023-06-22T00:11:38;10.30;;;9.60;;
47337;SDS011;33069;51.970;5.892;2023-06-22T00:14:04;10.20;;;9.20;;
47337;SDS011;33069;51.970;5.892;2023-06-22T00:16:33;10.50;;;9.60;;
47337;SDS011;33069;51.970;5.892;2023-06-22T00:18:59;9.75;;;8.93;;
47337;SDS011;33069;51.970;5.892;2023-06-22T00:21:29;10.52;;;9.75;;
47337;SDS011;33069;51.970;5.892;2023-06-22T00:23:55;10.73;;;9.73;;
47337;SDS011;33069;51.970;5.892;2023-06-22T00:26:22;12.85;;;10.63;;
47337;SDS011;33069;51.970;5.892;2023-06-22T00:28:48;11.77;;;10.68;;
47337;SDS011;33069;51.970;5.892;2023-06-22T00:31:14;11.38;;;10.45;;
47337;SDS011;33069;51.970;5.892;2023-06-22T00:33:40;11.27;;;10.43;;
47337;SDS011;33069;51.970;5.892;2023-06-22T00:36:05;11.90;;;11.00;;
47337;SDS011;33069;51.970;5.892;2023-06-22T00:38:33;11.65;;;10.68;;
47337;SDS011;33069;51.970;5.892;2023-06-22T00:40:59;11.60;;;10.50;;
47337;SDS011;33069;51.970;5.892;2023-06-22T00:43:24;12.57;;;10.57;;
47337;SDS011;33069;51.970;5.892;2023-06-22T00:45:50;12.18;;;10.93;;
47337;SDS011;33069;51.970;5.892;2023-06-22T00:48:16;12.25;;;10.98;;
47337;SDS011;33069;51.970;5.892;2023-06-22T00:50:42;12.15;;;10.95;;
47337;SDS011;33069;51.970;5.892;2023-06-22T00:53:08;11.50;;;10.50;;
47337;SDS011;33069;51.970;5.892;2023-06-22T00:55:35;12.77;;;10.88;;
47337;SDS011;33069;51.970;5.892;2023-06-22T00:58:05;11.50;;;10.18;;
47337;SDS011;33069;51.970;5.892;2023-06-22T01:00:35;11.75;;;10.73;;
47337;SDS011;33069;51.970;5.892;2023-06-22T01:03:01;11.05;;;9.95;;
47337;SDS011;33069;51.970;5.892;2023-06-22T01:05:28;11.35;;;10.20;;
47337;SDS011;33069;51.970;5.892;2023-06-22T01:16:29;12.00;;;10.65;;
47337;SDS011;33069;51.970;5.892;2023-06-22T01:18:57;13.23;;;10.85;;
47337;SDS011;33069;51.970;5.892;2023-06-22T01:21:40;11.00;;;10.00;;
47337;SDS011;33069;51.970;5.892;2023-06-22T01:26:54;10.63;;;9.73;;
47337;SDS011;33069;51.970;5.892;2023-06-22T01:29:34;11.52;;;10.52;;
47337;SDS011;33069;51.970;5.892;2023-06-22T01:32:01;11.15;;;10.23;;
47337;SDS011;33069;51.970;5.892;2023-06-22T01:34:29;11.15;;;10.32;;
47337;SDS011;33069;51.970;5.892;2023-06-22T01:36:57;11.98;;;10.77;;
47337;SDS011;33069;51.970;5.892;2023-06-22T01:39:25;12.07;;;10.30;;
47337;SDS011;33069;51.970;5.892;2023-06-22T01:41:51;11.90;;;10.65;;
47337;SDS011;33069;51.970;5.892;2023-06-22T01:44:19;12.23;;;10.98;;
47337;SDS011;33069;51.970;5.892;2023-06-22T01:46:46;13.05;;;10.50;;
47337;SDS011;33069;51.970;5.892;2023-06-22T01:49:14;11.63;;;10.68;;
47337;SDS011;33069;51.970;5.892;2023-06-22T01:51:40;11.65;;;10.55;;
47337;SDS011;33069;51.970;5.892;2023-06-22T01:54:06;11.43;;;10.52;;
47337;SDS011;33069;51.970;5.892;2023-06-22T01:56:33;12.10;;;10.90;;
47337;SDS011;33069;51.970;5.892;2023-06-22T02:01:35;12.75;;;11.45;;
47337;SDS011;33069;51.970;5.892;2023-06-22T02:04:12;11.88;;;10.73;;
47337;SDS011;33069;51.970;5.892;2023-06-22T02:06:43;12.27;;;10.98;;
47337;SDS011;33069;51.970;5.892;2023-06-22T02:09:16;11.82;;;10.63;;
47337;SDS011;33069;51.970;5.892;2023-06-22T02:11:44;11.82;;;10.73;;
47337;SDS011;33069;51.970;5.892;2023-06-22T02:14:12;11.43;;;10.30;;
47337;SDS011;33069;51.970;5.892;2023-06-22T02:16:38;11.38;;;9.68;;
47337;SDS011;33069;51.970;5.892;2023-06-22T02:19:05;11.80;;;10.38;;
47337;SDS011;33069;51.970;5.892;2023-06-22T02:21:31;11.48;;;10.38;;
47337;SDS011;33069;51.970;5.892;2023-06-22T02:23:57;11.00;;;9.95;;
47337;SDS011;33069;51.970;5.892;2023-06-22T02:26:24;11.27;;;10.18;;
47337;SDS011;33069;51.970;5.892;2023-06-22T02:28:51;11.65;;;10.55;;
47337;SDS011;33069;51.970;5.892;2023-06-22T02:31:17;12.15;;;11.05;;
47337;SDS011;33069;51.970;5.892;2023-06-22T02:33:43;12.73;;;11.52;;
47337;SDS011;33069;51.970;5.892;2023-06-22T02:36:10;13.77;;;12.50;;
47337;SDS011;33069;51.970;5.892;2023-06-22T02:38:38;12.65;;;11.50;;
47337;SDS011;33069;51.970;5.892;2023-06-22T02:41:13;14.00;;;12.63;;
47337;SDS011;33069;51.970;5.892;2023-06-22T02:43:45;15.65;;;12.35;;
47337;SDS011;33069;51.970;5.892;2023-06-22T02:46:11;14.80;;;13.32;;
47337;SDS011;33069;51.970;5.892;2023-06-22T02:48:38;13.88;;;12.48;;
47337;SDS011;33069;51.970;5.892;2023-06-22T02:51:05;15.73;;;14.15;;
47337;SDS011;33069;51.970;5.892;2023-06-22T02:53:31;15.40;;;13.70;;
47337;SDS011;33069;51.970;5.892;2023-06-22T02:55:57;16.58;;;14.88;;
47337;SDS011;33069;51.970;5.892;2023-06-22T02:58:23;17.65;;;15.50;;
47337;SDS011;33069;51.970;5.892;2023-06-22T03:00:49;18.17;;;14.93;;
47337;SDS011;33069;51.970;5.892;2023-06-22T03:03:18;16.40;;;14.93;;
47337;SDS011;33069;51.970;5.892;2023-06-22T03:05:44;15.43;;;13.93;;
47337;SDS011;33069;51.970;5.892;2023-06-22T03:08:10;17.50;;;15.00;;
47337;SDS011;33069;51.970;5.892;2023-06-22T03:10:35;14.25;;;12.95;;
47337;SDS011;33069;51.970;5.892;2023-06-22T03:13:01;15.60;;;13.85;;
47337;SDS011;33069;51.970;5.892;2023-06-22T03:15:27;15.70;;;14.10;;
47337;SDS011;33069;51.970;5.892;2023-06-22T03:17:54;15.90;;;14.23;;
47337;SDS011;33069;51.970;5.892;2023-06-22T03:20:20;15.82;;;14.20;;
47337;SDS011;33069;51.970;5.892;2023-06-22T03:22:46;18.30;;;15.88;;
47337;SDS011;33069;51.970;5.892;2023-06-22T03:25:13;15.23;;;13.57;;
47337;SDS011;33069;51.970;5.892;2023-06-22T03:27:40;16.20;;;13.80;;
47337;SDS011;33069;51.970;5.892;2023-06-22T03:30:07;18.42;;;15.82;;
47337;SDS011;33069;51.970;5.892;2023-06-22T03:32:34;19.90;;;17.92;;
47337;SDS011;33069;51.970;5.892;2023-06-22T03:35:00;20.70;;;18.23;;
47337;SDS011;33069;51.970;5.892;2023-06-22T03:37:27;22.77;;;20.33;;
47337;SDS011;33069;51.970;5.892;2023-06-22T03:39:53;27.42;;;22.45;;
47337;SDS011;33069;51.970;5.892;2023-06-22T03:42:19;27.85;;;24.25;;
47337;SDS011;33069;51.970;5.892;2023-06-22T03:44:45;25.77;;;23.00;;
47337;SDS011;33069;51.970;5.892;2023-06-22T03:47:10;26.88;;;24.05;;
47337;SDS011;33069;51.970;5.892;2023-06-22T03:49:36;29.45;;;25.88;;
47337;SDS011;33069;51.970;5.892;2023-06-22T03:52:02;29.17;;;25.65;;
47337;SDS011;33069;51.970;5.892;2023-06-22T03:54:28;29.35;;;26.23;;
47337;SDS011;33069;51.970;5.892;2023-06-22T03:56:55;31.60;;;26.08;;
47337;SDS011;33069;51.970;5.892;2023-06-22T03:59:22;31.58;;;26.48;;
47337;SDS011;33069;51.970;5.892;2023-06-22T04:01:47;30.52;;;27.13;;
47337;SDS011;33069;51.970;5.892;2023-06-22T04:04:13;30.95;;;27.48;;
47337;SDS011;33069;51.970;5.892;2023-06-22T04:06:39;31.13;;;27.83;;
47337;SDS011;33069;51.970;5.892;2023-06-22T04:09:08;34.38;;;30.13;;
47337;SDS011;33069;51.970;5.892;2023-06-22T04:11:33;32.50;;;28.17;;
47337;SDS011;33069;51.970;5.892;2023-06-22T04:13:59;33.58;;;28.45;;
47337;SDS011;33069;51.970;5.892;2023-06-22T04:16:25;33.33;;;28.35;;
47337;SDS011;33069;51.970;5.892;2023-06-22T04:18:51;37.08;;;29.48;;
47337;SDS011;33069;51.970;5.892;2023-06-22T04:21:16;32.15;;;28.75;;
47337;SDS011;33069;51.970;5.892;2023-06-22T04:23:44;34.53;;;30.15;;
47337;SDS011;33069;51.970;5.892;2023-06-22T04:26:11;33.72;;;30.00;;
47337;SDS011;33069;51.970;5.892;2023-06-22T04:28:37;34.47;;;29.77;;
47337;SDS011;33069;51.970;5.892;2023-06-22T04:31:03;37.10;;;32.40;;
47337;SDS011;33069;51.970;5.892;2023-06-22T04:33:29;35.97;;;32.08;;
47337;SDS011;33069;51.970;5.892;2023-06-22T04:35:56;34.55;;;30.95;;
47337;SDS011;33069;51.970;5.892;2023-06-22T04:38:23;36.40;;;31.83;;
47337;SDS011;33069;51.970;5.892;2023-06-22T04:40:50;38.55;;;31.17;;
47337;SDS011;33069;51.970;5.892;2023-06-22T04:43:16;36.13;;;32.25;;
47337;SDS011;33069;51.970;5.892;2023-06-22T04:45:42;35.00;;;31.42;;
47337;SDS011;33069;51.970;5.892;2023-06-22T04:48:07;35.40;;;31.33;;
47337;SDS011;33069;51.970;5.892;2023-06-22T04:50:35;33.88;;;30.52;;
47337;SDS011;33069;51.970;5.892;2023-06-22T04:53:04;37.55;;;32.78;;
47337;SDS011;33069;51.970;5.892;2023-06-22T04:55:31;36.63;;;32.83;;
47337;SDS011;33069;51.970;5.892;2023-06-22T04:57:57;39.28;;;32.08;;
47337;SDS011;33069;51.970;5.892;2023-06-22T05:00:29;38.33;;;32.78;;
47337;SDS011;33069;51.970;5.892;2023-06-22T05:02:56;37.08;;;33.17;;
47337;SDS011;33069;51.970;5.892;2023-06-22T05:05:25;38.45;;;34.15;;
47337;SDS011;33069;51.970;5.892;2023-06-22T05:07:51;37.38;;;33.28;;
47337;SDS011;33069;51.970;5.892;2023-06-22T05:10:24;39.00;;;32.53;;
47337;SDS011;33069;51.970;5.892;2023-06-22T05:12:50;35.78;;;31.98;;
47337;SDS011;33069;51.970;5.892;2023-06-22T05:15:16;36.97;;;32.30;;
47337;SDS011;33069;51.970;5.892;2023-06-22T05:17:44;37.08;;;32.03;;
47337;SDS011;33069;51.970;5.892;2023-06-22T05:20:10;36.28;;;32.40;;
47337;SDS011;33069;51.970;5.892;2023-06-22T05:22:37;38.63;;;32.90;;
47337;SDS011;33069;51.970;5.892;2023-06-22T05:25:08;36.22;;;31.83;;
47337;SDS011;33069;51.970;5.892;2023-06-22T05:27:34;36.20;;;32.22;;
47337;SDS011;33069;51.970;5.892;2023-06-22T05:30:04;37.83;;;30.45;;
47337;SDS011;33069;51.970;5.892;2023-06-22T05:32:32;33.63;;;30.08;;
47337;SDS011;33069;51.970;5.892;2023-06-22T05:34:58;33.53;;;29.92;;
47337;SDS011;33069;51.970;5.892;2023-06-22T05:37:24;33.20;;;28.58;;
47337;SDS011;33069;51.970;5.892;2023-06-22T05:39:51;30.48;;;27.38;;
47337;SDS011;33069;51.970;5.892;2023-06-22T05:42:16;32.13;;;26.98;;
47337;SDS011;33069;51.970;5.892;2023-06-22T05:44:42;30.58;;;27.38;;
47337;SDS011;33069;51.970;5.892;2023-06-22T05:47:08;30.05;;;26.85;;
47337;SDS011;33069;51.970;5.892;2023-06-22T05:49:34;29.63;;;26.55;;
47337;SDS011;33069;51.970;5.892;2023-06-22T05:51:59;29.20;;;26.40;;
47337;SDS011;33069;51.970;5.892;2023-06-22T05:54:27;32.50;;;26.58;;
47337;SDS011;33069;51.970;5.892;2023-06-22T05:56:53;29.25;;;25.88;;
47337;SDS011;33069;51.970;5.892;2023-06-22T05:59:19;28.05;;;25.05;;
47337;SDS011;33069;51.970;5.892;2023-06-22T06:01:44;27.88;;;25.08;;
47337;SDS011;33069;51.970;5.892;2023-06-22T06:04:15;28.05;;;25.05;;
47337;SDS011;33069;51.970;5.892;2023-06-22T06:06:41;28.08;;;25.25;;
47337;SDS011;33069;51.970;5.892;2023-06-22T06:09:07;28.42;;;25.55;;
47337;SDS011;33069;51.970;5.892;2023-06-22T06:11:33;29.63;;;26.48;;
47337;SDS011;33069;51.970;5.892;2023-06-22T06:13:58;27.88;;;24.98;;
47337;SDS011;33069;51.970;5.892;2023-06-22T06:16:24;28.27;;;25.60;;
47337;SDS011;33069;51.970;5.892;2023-06-22T06:18:50;32.85;;;25.30;;
47337;SDS011;33069;51.970;5.892;2023-06-22T06:21:16;27.70;;;25.02;;
47337;SDS011;33069;51.970;5.892;2023-06-22T06:23:42;28.73;;;24.63;;
47337;SDS011;33069;51.970;5.892;2023-06-22T06:26:08;26.58;;;23.52;;
47337;SDS011;33069;51.970;5.892;2023-06-22T06:28:34;26.70;;;24.10;;
47337;SDS011;33069;51.970;5.892;2023-06-22T06:31:00;28.38;;;25.55;;
47337;SDS011;33069;51.970;5.892;2023-06-22T06:33:26;29.00;;;25.95;;
47337;SDS011;33069;51.970;5.892;2023-06-22T06:35:52;27.75;;;25.02;;
47337;SDS011;33069;51.970;5.892;2023-06-22T06:38:18;28.25;;;25.45;;
47337;SDS011;33069;51.970;5.892;2023-06-22T06:40:43;27.27;;;24.52;;
47337;SDS011;33069;51.970;5.892;2023-06-22T06:43:10;26.92;;;24.35;;
47337;SDS011;33069;51.970;5.892;2023-06-22T06:45:35;27.27;;;24.13;;
47337;SDS011;33069;51.970;5.892;2023-06-22T06:48:01;28.02;;;25.20;;
47337;SDS011;33069;51.970;5.892;2023-06-22T06:50:27;26.27;;;23.55;;
47337;SDS011;33069;51.970;5.892;2023-06-22T06:52:53;28.00;;;24.58;;
47337;SDS011;33069;51.970;5.892;2023-06-22T06:55:19;27.92;;;25.33;;
47337;SDS011;33069;51.970;5.892;2023-06-22T06:57:45;26.73;;;24.02;;
47337;SDS011;33069;51.970;5.892;2023-06-22T07:00:13;26.42;;;23.90;;
47337;SDS011;33069;51.970;5.892;2023-06-22T07:02:40;26.25;;;23.60;;
47337;SDS011;33069;51.970;5.892;2023-06-22T07:05:07;26.55;;;23.88;;
47337;SDS011;33069;51.970;5.892;2023-06-22T07:07:34;27.40;;;24.63;;
47337;SDS011;33069;51.970;5.892;2023-06-22T07:09:59;26.40;;;23.88;;
47337;SDS011;33069;51.970;5.892;2023-06-22T07:12:26;25.83;;;23.58;;
47337;SDS011;33069;51.970;5.892;2023-06-22T07:14:52;26.25;;;23.70;;
47337;SDS011;33069;51.970;5.892;2023-06-22T07:17:18;26.70;;;23.98;;
47337;SDS011;33069;51.970;5.892;2023-06-22T07:19:44;25.75;;;23.25;;
47337;SDS011;33069;51.970;5.892;2023-06-22T07:22:10;24.92;;;22.40;;
47337;SDS011;33069;51.970;5.892;2023-06-22T07:24:36;25.02;;;22.70;;
47337;SDS011;33069;51.970;5.892;2023-06-22T07:27:02;25.35;;;22.95;;
47337;SDS011;33069;51.970;5.892;2023-06-22T07:29:30;26.20;;;23.65;;
47337;SDS011;33069;51.970;5.892;2023-06-22T07:31:56;23.70;;;21.40;;
47337;SDS011;33069;51.970;5.892;2023-06-22T07:34:22;24.23;;;21.73;;
47337;SDS011;33069;51.970;5.892;2023-06-22T07:36:48;23.48;;;21.38;;
47337;SDS011;33069;51.970;5.892;2023-06-22T07:39:14;23.77;;;21.48;;
47337;SDS011;33069;51.970;5.892;2023-06-22T07:41:39;24.25;;;21.77;;
47337;SDS011;33069;51.970;5.892;2023-06-22T07:44:08;23.60;;;21.25;;
47337;SDS011;33069;51.970;5.892;2023-06-22T07:46:34;23.10;;;21.15;;
47337;SDS011;33069;51.970;5.892;2023-06-22T07:49:00;23.48;;;21.48;;
47337;SDS011;33069;51.970;5.892;2023-06-22T07:51:26;23.23;;;21.25;;
47337;SDS011;33069;51.970;5.892;2023-06-22T07:53:52;21.63;;;19.73;;
47337;SDS011;33069;51.970;5.892;2023-06-22T07:56:18;22.48;;;20.48;;
47337;SDS011;33069;51.970;5.892;2023-06-22T07:58:45;23.17;;;20.77;;
47337;SDS011;33069;51.970;5.892;2023-06-22T08:01:12;21.80;;;20.00;;
47337;SDS011;33069;51.970;5.892;2023-06-22T08:03:41;22.77;;;20.67;;
47337;SDS011;33069;51.970;5.892;2023-06-22T08:06:08;22.85;;;20.48;;
47337;SDS011;33069;51.970;5.892;2023-06-22T08:08:34;22.27;;;20.23;;
47337;SDS011;33069;51.970;5.892;2023-06-22T08:11:01;22.35;;;19.98;;
47337;SDS011;33069;51.970;5.892;2023-06-22T08:13:27;21.45;;;19.63;;
47337;SDS011;33069;51.970;5.892;2023-06-22T08:15:52;21.70;;;19.85;;
47337;SDS011;33069;51.970;5.892;2023-06-22T08:18:18;21.95;;;20.15;;
47337;SDS011;33069;51.970;5.892;2023-06-22T08:20:44;23.33;;;21.27;;
47337;SDS011;33069;51.970;5.892;2023-06-22T08:23:10;21.48;;;19.65;;
47337;SDS011;33069;51.970;5.892;2023-06-22T08:25:35;22.40;;;20.20;;
47337;SDS011;33069;51.970;5.892;2023-06-22T08:28:01;21.95;;;19.95;;
47337;SDS011;33069;51.970;5.892;2023-06-22T08:30:28;22.52;;;20.63;;
47337;SDS011;33069;51.970;5.892;2023-06-22T08:32:54;21.20;;;19.38;;
47337;SDS011;33069;51.970;5.892;2023-06-22T08:35:21;20.67;;;18.70;;
47337;SDS011;33069;51.970;5.892;2023-06-22T08:37:47;20.60;;;18.95;;
47337;SDS011;33069;51.970;5.892;2023-06-22T08:40:17;21.90;;;19.95;;
47337;SDS011;33069;51.970;5.892;2023-06-22T08:42:45;20.95;;;19.45;;
47337;SDS011;33069;51.970;5.892;2023-06-22T08:45:11;21.45;;;19.60;;
47337;SDS011;33069;51.970;5.892;2023-06-22T08:47:37;23.23;;;20.95;;
47337;SDS011;33069;51.970;5.892;2023-06-22T08:50:02;23.13;;;21.08;;
47337;SDS011;33069;51.970;5.892;2023-06-22T08:52:28;23.48;;;21.48;;
47337;SDS011;33069;51.970;5.892;2023-06-22T08:54:54;22.52;;;20.63;;
47337;SDS011;33069;51.970;5.892;2023-06-22T08:57:20;21.67;;;19.85;;
47337;SDS011;33069;51.970;5.892;2023-06-22T08:59:46;22.10;;;20.27;;
47337;SDS011;33069;51.970;5.892;2023-06-22T09:02:12;22.10;;;20.40;;
47337;SDS011;33069;51.970;5.892;2023-06-22T09:04:38;20.65;;;18.50;;
47337;SDS011;33069;51.970;5.892;2023-06-22T09:07:03;20.25;;;18.42;;
47337;SDS011;33069;51.970;5.892;2023-06-22T09:09:29;19.92;;;18.40;;
47337;SDS011;33069;51.970;5.892;2023-06-22T09:11:55;17.88;;;16.40;;
47337;SDS011;33069;51.970;5.892;2023-06-22T09:14:21;17.83;;;16.30;;
47337;SDS011;33069;51.970;5.892;2023-06-22T09:16:47;17.77;;;15.98;;
47337;SDS011;33069;51.970;5.892;2023-06-22T09:19:12;18.33;;;16.80;;
47337;SDS011;33069;51.970;5.892;2023-06-22T09:21:38;18.70;;;17.30;;
47337;SDS011;33069;51.970;5.892;2023-06-22T09:24:04;18.00;;;16.52;;
47337;SDS011;33069;51.970;5.892;2023-06-22T09:26:30;17.25;;;15.77;;
47337;SDS011;33069;51.970;5.892;2023-06-22T09:28:56;17.48;;;15.95;;
47337;SDS011;33069;51.970;5.892;2023-06-22T09:31:23;19.33;;;17.60;;
47337;SDS011;33069;51.970;5.892;2023-06-22T09:33:53;17.85;;;16.15;;
47337;SDS011;33069;51.970;5.892;2023-06-22T09:36:22;17.75;;;15.98;;
47337;SDS011;33069;51.970;5.892;2023-06-22T09:38:48;17.35;;;15.85;;
47337;SDS011;33069;51.970;5.892;2023-06-22T09:41:20;16.63;;;15.32;;
47337;SDS011;33069;51.970;5.892;2023-06-22T09:43:46;15.73;;;14.48;;
47337;SDS011;33069;51.970;5.892;2023-06-22T09:46:14;16.50;;;15.18;;
47337;SDS011;33069;51.970;5.892;2023-06-22T09:48:40;16.77;;;15.38;;
47337;SDS011;33069;51.970;5.892;2023-06-22T09:51:06;16.92;;;15.23;;
47337;SDS011;33069;51.970;5.892;2023-06-22T09:53:32;16.27;;;15.05;;
47337;SDS011;33069;51.970;5.892;2023-06-22T09:55:59;20.33;;;18.33;;
47337;SDS011;33069;51.970;5.892;2023-06-22T09:58:25;15.80;;;14.57;;
47337;SDS011;33069;51.970;5.892;2023-06-22T10:00:51;16.13;;;14.82;;
47337;SDS011;33069;51.970;5.892;2023-06-22T10:03:18;17.10;;;15.50;;
47337;SDS011;33069;51.970;5.892;2023-06-22T10:05:43;16.20;;;14.68;;
47337;SDS011;33069;51.970;5.892;2023-06-22T10:08:09;16.98;;;15.38;;
47337;SDS011;33069;51.970;5.892;2023-06-22T10:10:35;16.17;;;14.88;;
47337;SDS011;33069;51.970;5.892;2023-06-22T10:13:08;16.80;;;13.00;;
47337;SDS011;33069;51.970;5.892;2023-06-22T10:15:37;15.13;;;13.82;;
47337;SDS011;33069;51.970;5.892;2023-06-22T10:18:04;15.07;;;13.68;;
47337;SDS011;33069;51.970;5.892;2023-06-22T10:20:29;15.52;;;14.07;;
47337;SDS011;33069;51.970;5.892;2023-06-22T10:22:55;16.67;;;15.00;;
47337;SDS011;33069;51.970;5.892;2023-06-22T10:25:21;15.75;;;14.35;;
47337;SDS011;33069;51.970;5.892;2023-06-22T10:27:47;14.73;;;13.57;;
47337;SDS011;33069;51.970;5.892;2023-06-22T10:30:13;17.15;;;15.27;;
47337;SDS011;33069;51.970;5.892;2023-06-22T10:32:39;16.83;;;14.23;;
47337;SDS011;33069;51.970;5.892;2023-06-22T10:35:05;15.98;;;14.65;;
47337;SDS011;33069;51.970;5.892;2023-06-22T10:37:31;16.00;;;14.48;;
47337;SDS011;33069;51.970;5.892;2023-06-22T10:39:57;18.45;;;14.25;;
47337;SDS011;33069;51.970;5.892;2023-06-22T10:42:23;16.00;;;14.38;;
47337;SDS011;33069;51.970;5.892;2023-06-22T10:44:48;15.50;;;14.00;;
47337;SDS011;33069;51.970;5.892;2023-06-22T10:47:14;15.45;;;14.15;;
47337;SDS011;33069;51.970;5.892;2023-06-22T10:49:40;15.10;;;13.70;;
47337;SDS011;33069;51.970;5.892;2023-06-22T10:52:06;16.75;;;15.02;;
47337;SDS011;33069;51.970;5.892;2023-06-22T10:54:33;16.30;;;14.90;;
47337;SDS011;33069;51.970;5.892;2023-06-22T10:56:59;16.27;;;14.68;;
47337;SDS011;33069;51.970;5.892;2023-06-22T10:59:26;16.85;;;14.75;;
47337;SDS011;33069;51.970;5.892;2023-06-22T11:01:52;17.17;;;15.48;;
47337;SDS011;33069;51.970;5.892;2023-06-22T11:04:18;16.48;;;14.98;;
47337;SDS011;33069;51.970;5.892;2023-06-22T11:06:44;16.08;;;14.68;;
47337;SDS011;33069;51.970;5.892;2023-06-22T11:09:09;18.08;;;16.50;;
47337;SDS011;33069;51.970;5.892;2023-06-22T11:11:36;19.70;;;15.80;;
47337;SDS011;33069;51.970;5.892;2023-06-22T11:14:02;18.38;;;15.98;;
47337;SDS011;33069;51.970;5.892;2023-06-22T11:16:28;17.77;;;16.15;;
47337;SDS011;33069;51.970;5.892;2023-06-22T11:18:53;17.02;;;15.43;;
47337;SDS011;33069;51.970;5.892;2023-06-22T11:21:19;19.08;;;17.30;;
47337;SDS011;33069;51.970;5.892;2023-06-22T11:23:45;17.38;;;15.82;;
47337;SDS011;33069;51.970;5.892;2023-06-22T11:26:10;17.35;;;15.60;;
47337;SDS011;33069;51.970;5.892;2023-06-22T11:28:36;17.65;;;16.10;;
47337;SDS011;33069;51.970;5.892;2023-06-22T11:31:02;18.55;;;16.65;;
47337;SDS011;33069;51.970;5.892;2023-06-22T11:33:28;19.00;;;17.42;;
47337;SDS011;33069;51.970;5.892;2023-06-22T11:35:54;21.23;;;19.35;;
47337;SDS011;33069;51.970;5.892;2023-06-22T11:38:21;20.92;;;19.23;;
47337;SDS011;33069;51.970;5.892;2023-06-22T11:40:47;21.67;;;19.65;;
47337;SDS011;33069;51.970;5.892;2023-06-22T11:43:13;22.63;;;20.77;;
47337;SDS011;33069;51.970;5.892;2023-06-22T11:45:40;20.90;;;19.42;;
47337;SDS011;33069;51.970;5.892;2023-06-22T11:48:05;21.20;;;19.25;;
47337;SDS011;33069;51.970;5.892;2023-06-22T11:50:31;21.13;;;19.23;;
47337;SDS011;33069;51.970;5.892;2023-06-22T11:53:00;21.58;;;19.73;;
47337;SDS011;33069;51.970;5.892;2023-06-22T11:55:29;22.70;;;21.00;;
47337;SDS011;33069;51.970;5.892;2023-06-22T11:57:55;22.98;;;20.92;;
47337;SDS011;33069;51.970;5.892;2023-06-22T12:00:24;25.73;;;23.63;;
47337;SDS011;33069;51.970;5.892;2023-06-22T12:02:50;29.55;;;26.80;;
47337;SDS011;33069;51.970;5.892;2023-06-22T12:05:20;30.63;;;27.83;;
47337;SDS011;33069;51.970;5.892;2023-06-22T12:07:49;33.00;;;30.33;;
47337;SDS011;33069;51.970;5.892;2023-06-22T12:10:18;32.63;;;29.73;;
47337;SDS011;33069;51.970;5.892;2023-06-22T12:12:43;36.83;;;33.17;;
47337;SDS011;33069;51.970;5.892;2023-06-22T12:15:09;34.25;;;31.40;;
47337;SDS011;33069;51.970;5.892;2023-06-22T12:17:35;36.10;;;32.90;;
47337;SDS011;33069;51.970;5.892;2023-06-22T12:20:01;35.25;;;32.35;;
47337;SDS011;33069;51.970;5.892;2023-06-22T12:22:30;34.95;;;32.13;;
47337;SDS011;33069;51.970;5.892;2023-06-22T12:24:57;34.05;;;31.10;;
47337;SDS011;33069;51.970;5.892;2023-06-22T12:27:22;35.67;;;32.67;;
47337;SDS011;33069;51.970;5.892;2023-06-22T12:29:48;36.47;;;33.38;;
47337;SDS011;33069;51.970;5.892;2023-06-22T12:32:14;37.03;;;33.92;;
47337;SDS011;33069;51.970;5.892;2023-06-22T12:34:41;34.90;;;31.85;;
47337;SDS011;33069;51.970;5.892;2023-06-22T12:37:07;35.95;;;33.05;;
47337;SDS011;33069;51.970;5.892;2023-06-22T12:39:33;34.83;;;31.63;;
47337;SDS011;33069;51.970;5.892;2023-06-22T12:41:59;36.70;;;33.20;;
47337;SDS011;33069;51.970;5.892;2023-06-22T12:44:25;37.55;;;33.85;;
47337;SDS011;33069;51.970;5.892;2023-06-22T12:46:50;37.38;;;33.80;;
47337;SDS011;33069;51.970;5.892;2023-06-22T12:49:16;34.95;;;31.75;;
47337;SDS011;33069;51.970;5.892;2023-06-22T12:51:42;35.35;;;32.05;;
47337;SDS011;33069;51.970;5.892;2023-06-22T12:54:09;33.42;;;30.45;;
47337;SDS011;33069;51.970;5.892;2023-06-22T12:56:35;34.92;;;31.63;;
47337;SDS011;33069;51.970;5.892;2023-06-22T12:59:02;35.05;;;31.77;;
47337;SDS011;33069;51.970;5.892;2023-06-22T13:01:28;34.90;;;31.52;;
47337;SDS011;33069;51.970;5.892;2023-06-22T13:03:55;33.05;;;30.15;;
47337;SDS011;33069;51.970;5.892;2023-06-22T13:06:21;34.70;;;31.45;;
47337;SDS011;33069;51.970;5.892;2023-06-22T13:08:47;33.25;;;30.13;;
47337;SDS011;33069;51.970;5.892;2023-06-22T13:11:13;31.10;;;27.98;;
47337;SDS011;33069;51.970;5.892;2023-06-22T13:13:39;29.00;;;26.30;;
47337;SDS011;33069;51.970;5.892;2023-06-22T13:16:05;28.52;;;26.08;;
47337;SDS011;33069;51.970;5.892;2023-06-22T13:18:31;30.05;;;27.27;;
47337;SDS011;33069;51.970;5.892;2023-06-22T13:20:56;29.45;;;26.67;;
47337;SDS011;33069;51.970;5.892;2023-06-22T13:23:23;30.33;;;27.58;;
47337;SDS011;33069;51.970;5.892;2023-06-22T13:25:49;33.38;;;30.17;;
47337;SDS011;33069;51.970;5.892;2023-06-22T13:28:14;32.60;;;29.58;;
47337;SDS011;33069;51.970;5.892;2023-06-22T13:30:41;33.05;;;30.15;;
47337;SDS011;33069;51.970;5.892;2023-06-22T13:33:08;34.50;;;30.92;;
47337;SDS011;33069;51.970;5.892;2023-06-22T13:35:34;43.25;;;38.58;;
47337;SDS011;33069;51.970;5.892;2023-06-22T13:38:03;50.90;;;46.00;;
47337;SDS011;33069;51.970;5.892;2023-06-22T13:40:28;50.60;;;45.90;;
47337;SDS011;33069;51.970;5.892;2023-06-22T13:42:55;45.30;;;40.95;;
47337;SDS011;33069;51.970;5.892;2023-06-22T13:45:21;48.78;;;43.97;;
47337;SDS011;33069;51.970;5.892;2023-06-22T13:47:47;45.80;;;41.47;;
47337;SDS011;33069;51.970;5.892;2023-06-22T13:50:12;47.08;;;42.60;;
47337;SDS011;33069;51.970;5.892;2023-06-22T13:52:39;48.88;;;44.22;;
47337;SDS011;33069;51.970;5.892;2023-06-22T13:55:05;46.25;;;42.08;;
47337;SDS011;33069;51.970;5.892;2023-06-22T13:57:32;46.90;;;42.20;;
47337;SDS011;33069;51.970;5.892;2023-06-22T13:59:58;47.88;;;43.47;;
47337;SDS011;33069;51.970;5.892;2023-06-22T14:02:27;50.67;;;45.60;;
47337;SDS011;33069;51.970;5.892;2023-06-22T14:04:53;46.85;;;42.63;;
47337;SDS011;33069;51.970;5.892;2023-06-22T14:07:19;51.05;;;46.22;;
47337;SDS011;33069;51.970;5.892;2023-06-22T14:09:45;52.40;;;47.60;;
47337;SDS011;33069;51.970;5.892;2023-06-22T14:12:11;53.72;;;48.97;;
47337;SDS011;33069;51.970;5.892;2023-06-22T14:14:39;56.00;;;49.75;;
47337;SDS011;33069;51.970;5.892;2023-06-22T14:17:04;54.97;;;49.78;;
47337;SDS011;33069;51.970;5.892;2023-06-22T14:19:30;56.67;;;50.88;;
47337;SDS011;33069;51.970;5.892;2023-06-22T14:21:56;56.55;;;51.17;;
47337;SDS011;33069;51.970;5.892;2023-06-22T14:24:22;56.40;;;50.92;;
47337;SDS011;33069;51.970;5.892;2023-06-22T14:26:48;60.35;;;54.25;;
47337;SDS011;33069;51.970;5.892;2023-06-22T14:29:14;64.78;;;58.92;;
47337;SDS011;33069;51.970;5.892;2023-06-22T14:31:39;56.92;;;51.45;;